Time;durP1;ratioP1;P1;durP2;ratioP2;P2;SDS_P1;SDS_P2;PMS_P1;PMS_P2;Temp;Humidity;BMP_temperature;BMP_pressure;BME280_temperature;BME280_humidity;BME280_pressure;Samples;Min_cycle;Max_cycle;Signal;HPM_P1;HPM_P2
2024/01/10 00:01:18;;;;;;;17.52;8.88;;;-4.00;89.20;;;;;;5023834;28;20021;-61
2024/01/10 00:03:44;;;;;;;14.02;7.60;;;-3.90;87.60;;;;;;5019343;28;20625;-61
2024/01/10 00:06:11;;;;;;;16.05;8.30;;;-3.90;85.30;;;;;;5021425;28;20030;-63
2024/01/10 00:08:37;;;;;;;18.90;9.52;;;-3.70;85.20;;;;;;5020636;28;20029;-62
2024/01/10 00:11:03;;;;;;;13.20;8.13;;;-3.70;84.60;;;;;;5019096;28;20021;-62
2024/01/10 00:13:31;;;;;;;17.23;8.00;;;-3.70;84.50;;;;;;5024383;28;20705;-62
2024/01/10 00:15:58;;;;;;;12.43;6.95;;;-3.60;85.30;;;;;;5017968;28;20053;-62
2024/01/10 00:18:24;;;;;;;15.32;8.25;;;-3.60;83.20;;;;;;5021478;28;20021;-64
2024/01/10 00:20:53;;;;;;;14.60;7.95;;;-3.60;82.60;;;;;;5020100;28;20025;-64
2024/01/10 00:23:19;;;;;;;16.25;8.27;;;-3.60;83.10;;;;;;5019427;28;20033;-63
2024/01/10 00:25:45;;;;;;;13.75;7.40;;;-3.50;82.90;;;;;;5022267;28;20410;-62
2024/01/10 00:28:11;;;;;;;13.02;7.88;;;-3.50;82.90;;;;;;5022368;28;20030;-63
2024/01/10 00:30:37;;;;;;;20.63;7.50;;;-3.60;83.10;;;;;;5019396;28;20029;-63
2024/01/10 00:33:03;;;;;;;14.45;7.40;;;-3.60;83.80;;;;;;5022700;28;20034;-62
2024/01/10 00:35:29;;;;;;;17.17;8.65;;;-3.60;83.10;;;;;;5018929;28;20040;-63
2024/01/10 00:37:54;;;;;;;16.13;8.35;;;-3.60;84.50;;;;;;5019731;28;20030;-64
2024/01/10 00:40:20;;;;;;;15.23;9.10;;;-3.60;83.90;;;;;;5022528;28;20455;-63
2024/01/10 00:42:46;;;;;;;13.98;7.95;;;-3.60;83.80;;;;;;5019990;28;20038;-63
2024/01/10 00:45:11;;;;;;;17.05;8.88;;;-3.60;84.60;;;;;;5019585;28;20383;-63
2024/01/10 00:47:37;;;;;;;15.95;9.23;;;-3.60;85.30;;;;;;5019308;28;20021;-63
2024/01/10 00:50:03;;;;;;;18.63;10.02;;;-3.60;84.80;;;;;;5021661;28;20755;-64
2024/01/10 00:52:28;;;;;;;19.60;9.38;;;-3.70;85.30;;;;;;5017475;28;20052;-63
2024/01/10 00:54:54;;;;;;;18.00;8.18;;;-3.70;85.90;;;;;;5019673;28;20485;-63
2024/01/10 00:57:19;;;;;;;17.45;8.75;;;-3.70;85.90;;;;;;5018557;28;20075;-63
2024/01/10 00:59:45;;;;;;;14.63;8.38;;;-3.70;86.50;;;;;;5018868;28;20402;-62
2024/01/10 01:02:10;;;;;;;15.40;8.88;;;-3.70;85.50;;;;;;5023151;28;20049;-62
2024/01/10 01:04:36;;;;;;;17.95;9.02;;;-3.70;85.40;;;;;;5019347;28;20025;-63
2024/01/10 01:07:02;;;;;;;29.67;8.45;;;-3.70;86.20;;;;;;5022249;28;20032;-63
2024/01/10 01:09:27;;;;;;;17.92;8.55;;;-3.70;85.90;;;;;;5020173;28;20033;-63
2024/01/10 01:11:53;;;;;;;18.08;10.13;;;-3.70;85.50;;;;;;5018757;28;20492;-63
2024/01/10 01:14:18;;;;;;;23.50;9.77;;;-3.70;85.60;;;;;;5020471;28;20091;-63
2024/01/10 01:16:44;;;;;;;19.00;9.18;;;-3.70;86.30;;;;;;5022717;28;20028;-63
2024/01/10 01:19:10;;;;;;;17.10;9.10;;;-3.80;85.60;;;;;;5021427;28;20097;-62
2024/01/10 01:21:35;;;;;;;13.43;8.70;;;-3.80;86.80;;;;;;5019607;28;20034;-63
2024/01/10 01:24:01;;;;;;;14.98;7.10;;;-3.70;86.20;;;;;;5020145;28;20057;-61
2024/01/10 01:26:26;;;;;;;15.90;8.25;;;-3.70;85.30;;;;;;5023230;28;20030;-62
2024/01/10 01:28:52;;;;;;;16.20;9.35;;;-3.70;84.50;;;;;;5022346;28;20025;-63
2024/01/10 01:31:18;;;;;;;16.25;8.63;;;-3.60;85.20;;;;;;5023727;28;20021;-62
2024/01/10 01:33:43;;;;;;;21.27;10.75;;;-3.70;85.50;;;;;;5018614;28;20034;-63
2024/01/10 01:36:09;;;;;;;18.88;9.00;;;-3.70;85.40;;;;;;5017632;28;20064;-62
2024/01/10 01:38:35;;;;;;;16.17;8.52;;;-3.60;84.30;;;;;;5022492;28;20070;-62
2024/01/10 01:41:02;;;;;;;13.70;8.15;;;-3.50;83.10;;;;;;5019266;28;20033;-62
2024/01/10 01:43:28;;;;;;;20.17;9.15;;;-3.40;83.00;;;;;;5020347;28;20393;-62
2024/01/10 01:45:55;;;;;;;19.77;9.25;;;-3.40;82.80;;;;;;5017097;28;20038;-62
2024/01/10 01:48:23;;;;;;;13.60;7.78;;;-3.40;84.20;;;;;;5019072;28;20485;-62
2024/01/10 01:50:52;;;;;;;16.55;8.63;;;-3.50;83.80;;;;;;5016746;28;20468;-62
2024/01/10 01:53:18;;;;;;;13.80;8.75;;;-3.50;84.40;;;;;;5022823;28;20395;-62
2024/01/10 01:55:45;;;;;;;19.38;11.10;;;-3.40;84.20;;;;;;5018587;28;20030;-63
2024/01/10 01:58:12;;;;;;;16.27;10.23;;;-3.50;85.30;;;;;;5021056;28;20036;-62
2024/01/10 02:00:38;;;;;;;19.90;9.07;;;-3.50;85.70;;;;;;5020698;28;20442;-63
2024/01/10 02:03:09;;;;;;;17.60;8.90;;;-3.50;85.80;;;;;;5020282;28;20505;-61
2024/01/10 02:05:36;;;;;;;21.75;9.65;;;-3.50;84.50;;;;;;5019481;28;20064;-62
2024/01/10 02:08:02;;;;;;;32.45;11.23;;;-3.50;85.50;;;;;;5014791;28;20030;-61
2024/01/10 02:10:28;;;;;;;15.10;8.85;;;-3.50;86.90;;;;;;5017743;28;20029;-62
2024/01/10 02:12:53;;;;;;;19.58;9.50;;;-3.60;86.90;;;;;;5021093;28;20045;-62
2024/01/10 02:15:19;;;;;;;33.30;11.73;;;-3.60;87.50;;;;;;5019721;28;20049;-61
2024/01/10 02:17:45;;;;;;;22.80;11.38;;;-3.60;86.80;;;;;;5017945;28;20028;-61
2024/01/10 02:20:11;;;;;;;27.33;10.20;;;-3.60;87.50;;;;;;5017920;28;20026;-62
2024/01/10 02:22:37;;;;;;;20.33;9.75;;;-3.70;88.40;;;;;;5018198;28;20022;-62
2024/01/10 02:25:07;;;;;;;28.27;11.20;;;-3.70;90.20;;;;;;5019913;28;20802;-62
2024/01/10 02:27:36;;;;;;;19.70;9.73;;;-3.80;90.30;;;;;;5018690;28;20028;-60
2024/01/10 02:30:06;;;;;;;21.70;9.90;;;-3.80;90.60;;;;;;5018491;28;20088;-62
2024/01/10 02:32:32;;;;;;;20.57;10.33;;;-3.80;91.40;;;;;;5017535;28;20507;-62
2024/01/10 02:34:58;;;;;;;20.02;9.57;;;-3.80;91.10;;;;;;5018885;28;20333;-60
2024/01/10 02:37:24;;;;;;;29.90;10.88;;;-3.70;90.50;;;;;;5013700;28;20052;-61
2024/01/10 02:39:50;;;;;;;25.10;10.45;;;-3.70;91.50;;;;;;5015106;28;20387;-62
2024/01/10 02:42:15;;;;;;;19.65;9.40;;;-3.60;91.20;;;;;;5023283;28;20508;-63
2024/01/10 02:44:41;;;;;;;16.92;8.73;;;-3.60;90.40;;;;;;5019005;28;20036;-63
2024/01/10 02:47:07;;;;;;;19.15;9.80;;;-3.50;91.50;;;;;;5018203;28;20033;-62
2024/01/10 02:49:33;;;;;;;18.70;10.52;;;-3.60;92.10;;;;;;5018583;28;20053;-62
2024/01/10 02:51:59;;;;;;;18.13;8.88;;;-3.60;91.90;;;;;;5018158;28;20064;-62
2024/01/10 02:54:25;;;;;;;14.88;8.68;;;-3.60;91.20;;;;;;5017579;28;20026;-64
2024/01/10 02:56:51;;;;;;;19.95;8.88;;;-3.70;91.40;;;;;;5020442;28;20048;-61
2024/01/10 02:59:17;;;;;;;22.63;9.10;;;-3.70;92.40;;;;;;5021699;28;20025;-62
2024/01/10 03:01:43;;;;;;;18.65;8.63;;;-3.70;92.60;;;;;;5019979;28;20025;-62
2024/01/10 03:04:08;;;;;;;21.77;9.02;;;-3.80;92.20;;;;;;5018201;28;20080;-62
2024/01/10 03:06:34;;;;;;;16.65;9.35;;;-3.80;91.50;;;;;;5019101;28;20445;-63
2024/01/10 03:08:59;;;;;;;22.45;10.07;;;-3.80;92.40;;;;;;5018637;28;20501;-61
2024/01/10 03:11:25;;;;;;;17.30;9.60;;;-3.80;92.80;;;;;;5018250;28;20050;-63
2024/01/10 03:14:02;;;;;;;17.20;9.35;;;-3.80;92.10;;;;;;5020245;28;20040;-61
2024/01/10 03:16:27;;;;;;;17.25;9.40;;;-3.80;93.50;;;;;;5019124;28;20033;-62
2024/01/10 03:18:53;;;;;;;18.33;9.73;;;-3.90;93.70;;;;;;5016910;28;20034;-62
2024/01/10 03:21:24;;;;;;;16.52;9.57;;;-3.90;94.10;;;;;;5017735;28;20040;-62
2024/01/10 03:23:57;;;;;;;20.80;9.75;;;-3.90;94.00;;;;;;5014687;28;20038;-62
2024/01/10 03:26:24;;;;;;;16.48;9.10;;;-4.00;94.70;;;;;;5014306;28;20033;-62
2024/01/10 03:28:49;;;;;;;19.92;9.65;;;-4.00;95.90;;;;;;5015454;28;20032;-62
2024/01/10 03:31:15;;;;;;;17.98;11.13;;;-4.00;95.20;;;;;;5023380;28;20018;-62
2024/01/10 03:33:41;;;;;;;18.27;8.88;;;-3.90;95.20;;;;;;5020042;28;20062;-63
2024/01/10 03:36:11;;;;;;;13.75;8.50;;;-3.90;95.70;;;;;;5025169;28;20053;-62
2024/01/10 03:38:36;;;;;;;15.65;9.07;;;-3.80;94.30;;;;;;5022517;28;20038;-61
2024/01/10 03:41:02;;;;;;;15.25;9.20;;;-3.80;95.00;;;;;;5022807;28;20042;-62
2024/01/10 03:43:28;;;;;;;17.08;9.43;;;-3.80;94.60;;;;;;5022412;28;20065;-62
2024/01/10 03:45:53;;;;;;;17.05;9.80;;;-3.80;95.30;;;;;;5021653;28;20108;-62
2024/01/10 03:48:19;;;;;;;22.42;10.73;;;-3.80;96.10;;;;;;5022158;28;20494;-62
2024/01/10 03:50:44;;;;;;;17.80;9.95;;;-3.80;95.40;;;;;;5020227;28;20034;-62
2024/01/10 03:53:10;;;;;;;17.88;9.80;;;-3.80;95.80;;;;;;5021950;28;20030;-62
2024/01/10 03:55:36;;;;;;;25.15;11.85;;;-3.80;96.90;;;;;;5024395;28;20370;-63
2024/01/10 03:58:01;;;;;;;23.10;10.88;;;-3.90;97.40;;;;;;5021778;28;20498;-63
2024/01/10 04:00:27;;;;;;;23.50;10.88;;;-3.90;97.60;;;;;;5022875;28;20029;-62
2024/01/10 04:02:53;;;;;;;22.30;10.73;;;-3.90;97.90;;;;;;5022516;28;20030;-63
2024/01/10 04:05:20;;;;;;;20.10;10.57;;;-3.90;97.60;;;;;;5021968;28;20029;-63
2024/01/10 04:07:46;;;;;;;26.45;12.48;;;-3.90;99.90;;;;;;5021176;28;20075;-62
2024/01/10 04:10:13;;;;;;;23.60;10.23;;;-3.90;99.70;;;;;;5022070;28;20018;-63
2024/01/10 04:12:49;;;;;;;25.92;10.98;;;-3.90;99.60;;;;;;5022383;28;20105;-62
2024/01/10 04:15:15;;;;;;;26.02;10.07;;;-3.90;99.30;;;;;;5021062;28;20022;-61
2024/01/10 04:17:42;;;;;;;22.48;12.25;;;-4.00;98.80;;;;;;5021746;28;20100;-62
2024/01/10 04:20:09;;;;;;;29.60;12.52;;;-3.90;99.90;;;;;;5023034;28;20105;-63
2024/01/10 04:22:34;;;;;;;32.80;13.63;;;-3.90;99.90;;;;;;5020794;28;20659;-62
2024/01/10 04:25:01;;;;;;;25.90;11.18;;;-3.90;98.80;;;;;;5019116;28;20039;-62
2024/01/10 04:27:27;;;;;;;23.42;10.50;;;-3.90;99.30;;;;;;5022241;28;20121;-62
2024/01/10 04:29:53;;;;;;;22.88;11.52;;;-3.90;99.40;;;;;;5021820;28;20026;-61
2024/01/10 04:32:20;;;;;;;25.50;11.13;;;-3.90;99.90;;;;;;5022147;28;20550;-62
2024/01/10 04:34:45;;;;;;;32.67;12.27;;;-3.90;99.90;;;;;;5021423;28;20077;-62
2024/01/10 04:37:11;;;;;;;19.42;9.68;;;-3.90;99.90;;;;;;5021397;28;20382;-63
2024/01/10 04:39:42;;;;;;;20.63;10.15;;;-3.90;99.90;;;;;;5019453;28;20075;-63
2024/01/10 04:42:08;;;;;;;20.08;9.95;;;-4.00;99.90;;;;;;5019977;28;20540;-62
2024/01/10 04:44:33;;;;;;;15.68;9.07;;;-3.90;99.90;;;;;;5005695;28;20033;-62
2024/01/10 04:46:59;;;;;;;16.90;8.50;;;-4.00;99.90;;;;;;5019853;28;20025;-62
2024/01/10 04:49:25;;;;;;;22.05;9.85;;;-4.00;99.90;;;;;;5019441;28;20112;-63
2024/01/10 04:51:51;;;;;;;30.73;12.20;;;-4.00;99.90;;;;;;5019980;28;20503;-62
2024/01/10 04:54:17;;;;;;;19.58;10.00;;;-4.00;99.90;;;;;;5020417;28;20026;-62
2024/01/10 04:56:42;;;;;;;15.57;8.60;;;-3.90;99.90;;;;;;5020595;28;20532;-64
2024/01/10 04:59:08;;;;;;;19.88;11.00;;;-3.90;99.90;;;;;;5021096;28;20082;-63
2024/01/10 05:01:33;;;;;;;20.35;11.27;;;-3.90;99.90;;;;;;5018802;28;20030;-62
2024/01/10 05:03:59;;;;;;;30.63;11.00;;;-3.90;99.90;;;;;;5021201;28;20032;-62
2024/01/10 05:06:25;;;;;;;26.83;10.75;;;-3.90;99.90;;;;;;5019457;28;20723;-63
2024/01/10 05:08:51;;;;;;;23.95;12.07;;;-3.90;99.90;;;;;;5018769;28;20529;-63
2024/01/10 05:11:17;;;;;;;25.77;11.57;;;-3.90;99.90;;;;;;5024617;28;20022;-61
2024/01/10 05:13:43;;;;;;;21.63;10.23;;;-3.90;99.90;;;;;;5024233;28;20385;-63
2024/01/10 05:16:08;;;;;;;27.88;10.95;;;-3.90;99.90;;;;;;5019801;28;20097;-62
2024/01/10 05:18:34;;;;;;;23.70;10.27;;;-3.90;99.90;;;;;;5020645;28;20542;-62
2024/01/10 05:21:00;;;;;;;31.15;12.57;;;-3.80;99.90;;;;;;5019455;28;20036;-61
2024/01/10 05:23:26;;;;;;;30.00;11.63;;;-3.80;99.90;;;;;;5017892;28;20025;-62
2024/01/10 05:25:53;;;;;;;19.02;10.60;;;-3.80;99.90;;;;;;5019695;28;20490;-62
2024/01/10 05:28:18;;;;;;;30.52;11.90;;;-3.70;99.90;;;;;;5023017;28;20014;-61
2024/01/10 05:30:44;;;;;;;22.42;11.43;;;-3.80;99.90;;;;;;5018693;28;20025;-62
2024/01/10 05:33:10;;;;;;;16.38;10.18;;;-3.80;99.90;;;;;;5019309;28;20543;-61
2024/01/10 05:35:36;;;;;;;15.13;9.27;;;-3.90;99.90;;;;;;5022548;28;20076;-62
2024/01/10 05:38:02;;;;;;;21.98;9.50;;;-3.90;99.90;;;;;;5022636;28;20440;-62
2024/01/10 05:40:30;;;;;;;33.28;13.15;;;-3.90;99.90;;;;;;5022704;28;20028;-63
2024/01/10 05:42:55;;;;;;;28.20;12.77;;;-3.90;99.90;;;;;;5018987;28;20034;-61
2024/01/10 05:45:21;;;;;;;23.60;10.13;;;-3.90;99.90;;;;;;5020250;28;20556;-61
2024/01/10 05:47:48;;;;;;;19.42;10.77;;;-3.90;99.90;;;;;;5016550;28;20113;-62
2024/01/10 05:50:14;;;;;;;30.48;11.98;;;-3.90;99.90;;;;;;5022824;28;20056;-61
2024/01/10 05:52:40;;;;;;;22.63;9.45;;;-3.90;99.90;;;;;;5019676;28;20049;-61
2024/01/10 05:55:08;;;;;;;21.02;11.00;;;-3.90;99.90;;;;;;5020827;28;20371;-61
2024/01/10 05:57:34;;;;;;;29.33;11.48;;;-3.90;99.90;;;;;;5020461;28;20033;-59
2024/01/10 06:00:00;;;;;;;24.75;11.80;;;-3.90;99.90;;;;;;5023077;28;20030;-61
2024/01/10 06:02:26;;;;;;;16.52;9.60;;;-3.90;99.90;;;;;;5017717;28;20040;-61
2024/01/10 06:04:52;;;;;;;14.85;9.40;;;-3.90;99.90;;;;;;5020840;28;20402;-62
2024/01/10 06:07:18;;;;;;;21.05;10.73;;;-4.00;99.90;;;;;;5018857;28;20022;-61
2024/01/10 06:09:43;;;;;;;16.15;9.52;;;-4.00;99.90;;;;;;5017200;28;20040;-61
2024/01/10 06:12:09;;;;;;;18.02;9.63;;;-4.00;99.90;;;;;;5018997;28;20029;-62
2024/01/10 06:14:35;;;;;;;17.98;9.23;;;-4.00;99.90;;;;;;5019738;28;20120;-62
2024/01/10 06:17:03;;;;;;;20.55;9.48;;;-4.00;99.90;;;;;;5019218;28;20508;-61
2024/01/10 06:19:32;;;;;;;18.45;10.13;;;-4.00;99.90;;;;;;5020867;28;20022;-62
2024/01/10 06:21:58;;;;;;;17.88;9.65;;;-4.00;99.90;;;;;;5017930;28;20058;-61
2024/01/10 06:24:25;;;;;;;17.65;10.07;;;-4.00;99.90;;;;;;5020563;28;20087;-61
2024/01/10 06:26:50;;;;;;;15.25;9.35;;;-4.00;99.90;;;;;;5016717;28;20026;-62
2024/01/10 06:29:16;;;;;;;18.95;11.05;;;-4.00;99.90;;;;;;5019008;28;20037;-62
2024/01/10 06:31:42;;;;;;;16.23;9.60;;;-4.00;99.90;;;;;;5018556;28;20545;-62
2024/01/10 06:34:08;;;;;;;22.92;10.75;;;-4.00;99.90;;;;;;5018720;28;20029;-62
2024/01/10 06:36:34;;;;;;;17.92;9.80;;;-4.00;99.90;;;;;;5020226;28;20045;-61
2024/01/10 06:39:00;;;;;;;15.82;9.30;;;-4.00;99.90;;;;;;5017861;28;20034;-62
2024/01/10 06:41:26;;;;;;;19.55;10.23;;;-4.00;99.90;;;;;;5019398;28;20709;-61
2024/01/10 06:43:52;;;;;;;16.80;9.38;;;-4.10;99.90;;;;;;5017969;28;20033;-62
2024/01/10 06:46:18;;;;;;;14.20;9.48;;;-4.10;99.90;;;;;;5022548;28;20029;-62
2024/01/10 06:48:44;;;;;;;14.98;8.68;;;-4.10;99.90;;;;;;5019733;28;20033;-62
2024/01/10 06:51:12;;;;;;;18.45;9.50;;;-4.10;99.90;;;;;;5022852;28;20022;-61
2024/01/10 06:53:37;;;;;;;16.42;9.10;;;-4.00;99.90;;;;;;5019969;28;20044;-61
2024/01/10 06:56:03;;;;;;;20.83;10.30;;;-4.10;99.90;;;;;;5017227;28;20030;-61
2024/01/10 06:58:29;;;;;;;19.67;9.80;;;-4.00;99.90;;;;;;5019722;28;20079;-60
2024/01/10 07:00:55;;;;;;;17.67;11.35;;;-4.10;99.90;;;;;;5020371;28;20080;-61
2024/01/10 07:03:20;;;;;;;21.10;11.18;;;-4.00;99.90;;;;;;5020589;28;20030;-62
2024/01/10 07:05:46;;;;;;;20.63;9.30;;;-4.00;99.90;;;;;;5021976;28;20076;-63
2024/01/10 07:08:12;;;;;;;25.73;11.63;;;-4.10;99.90;;;;;;5023922;28;20049;-63
2024/01/10 07:10:38;;;;;;;18.23;9.38;;;-4.10;99.90;;;;;;5019756;28;20061;-62
2024/01/10 07:13:04;;;;;;;21.55;11.32;;;-4.00;99.90;;;;;;5022984;28;20038;-62
2024/01/10 07:15:30;;;;;;;18.33;9.68;;;-4.00;99.90;;;;;;5022078;28;20401;-62
2024/01/10 07:17:56;;;;;;;20.92;10.90;;;-4.00;99.90;;;;;;5022574;28;20120;-62
2024/01/10 07:20:23;;;;;;;20.15;10.63;;;-4.00;99.90;;;;;;5022171;28;20152;-61
2024/01/10 07:22:51;;;;;;;17.75;10.23;;;-4.00;99.90;;;;;;5024717;28;20492;-62
2024/01/10 07:25:17;;;;;;;16.17;9.45;;;-4.00;99.90;;;;;;5027040;28;20052;-62
2024/01/10 07:27:43;;;;;;;15.10;9.65;;;-4.00;99.90;;;;;;5025410;28;20032;-61
2024/01/10 07:30:13;;;;;;;13.77;9.50;;;-3.90;99.90;;;;;;5024048;28;20577;-62
2024/01/10 07:32:43;;;;;;;16.70;10.17;;;-3.90;99.90;;;;;;5021998;28;20069;-63
2024/01/10 07:35:09;;;;;;;17.70;9.27;;;-3.80;99.90;;;;;;5021471;28;20150;-64
2024/01/10 07:37:39;;;;;;;20.58;11.07;;;-3.80;99.90;;;;;;5021614;28;20026;-61
2024/01/10 07:40:10;;;;;;;18.07;10.07;;;-3.80;99.90;;;;;;5021144;28;20049;-61
2024/01/10 07:42:36;;;;;;;;;;;-3.70;99.90;;;;;;5021960;28;20686;-62
2024/01/10 07:45:05;;;;;;;17.45;9.15;;;-3.70;99.90;;;;;;5019677;28;19910;-62
2024/01/10 07:47:31;;;;;;;15.00;8.90;;;-3.70;99.90;;;;;;5022453;28;20084;-62
2024/01/10 07:49:58;;;;;;;17.55;10.35;;;-3.60;99.90;;;;;;5020616;28;20116;-62
2024/01/10 07:52:23;;;;;;;18.50;9.77;;;-3.60;99.90;;;;;;5020286;28;20032;-61
2024/01/10 07:54:49;;;;;;;18.80;9.88;;;-3.60;99.90;;;;;;5021949;28;20034;-62
2024/01/10 07:57:15;;;;;;;18.05;9.80;;;-3.50;99.90;;;;;;5019262;28;20129;-61
2024/01/10 07:59:41;;;;;;;17.52;9.48;;;-3.50;99.90;;;;;;5022133;28;20525;-62
2024/01/10 08:02:07;;;;;;;17.60;9.73;;;-3.50;99.90;;;;;;5021620;28;20034;-62
2024/01/10 08:04:32;;;;;;;15.60;9.90;;;-3.40;99.90;;;;;;5023116;28;20030;-63
2024/01/10 08:06:58;;;;;;;15.52;9.45;;;-3.40;99.90;;;;;;5022469;28;20067;-63
2024/01/10 08:09:24;;;;;;;17.77;9.63;;;-3.40;99.90;;;;;;5025051;28;20159;-62
2024/01/10 08:11:50;;;;;;;15.98;9.90;;;-3.40;99.90;;;;;;5020886;28;20505;-61
2024/01/10 08:14:16;;;;;;;16.92;9.93;;;-3.30;99.90;;;;;;5026331;28;20029;-63
2024/01/10 08:16:42;;;;;;;19.40;9.75;;;-3.30;99.90;;;;;;5022668;28;20030;-62
2024/01/10 08:19:08;;;;;;;16.05;8.80;;;-3.20;99.90;;;;;;5021629;28;20484;-63
2024/01/10 08:21:34;;;;;;;18.45;8.82;;;-3.20;99.90;;;;;;5021789;28;20540;-62
2024/01/10 08:24:02;;;;;;;16.85;9.07;;;-3.10;99.90;;;;;;5023300;28;20468;-62
2024/01/10 08:26:28;;;;;;;14.27;8.60;;;-3.10;99.90;;;;;;5020119;28;20040;-62
2024/01/10 08:28:53;;;;;;;16.15;10.07;;;-3.00;99.90;;;;;;5024232;28;20029;-64
2024/01/10 08:31:19;;;;;;;19.98;10.07;;;-2.90;99.90;;;;;;5020957;28;20025;-63
2024/01/10 08:33:46;;;;;;;23.00;9.77;;;-2.80;99.90;;;;;;5022140;28;20033;-63
2024/01/10 08:36:12;;;;;;;20.15;9.20;;;-2.80;99.90;;;;;;5021601;28;20026;-62
2024/01/10 08:38:38;;;;;;;16.63;9.57;;;-2.70;99.90;;;;;;5020871;28;20021;-63
2024/01/10 08:41:04;;;;;;;16.73;8.95;;;-2.70;99.90;;;;;;5020347;28;20036;-62
2024/01/10 08:43:30;;;;;;;15.35;9.25;;;-2.60;99.90;;;;;;5021258;28;20824;-63
2024/01/10 08:45:57;;;;;;;19.48;10.27;;;-2.60;99.90;;;;;;5021717;28;20063;-61
2024/01/10 08:48:23;;;;;;;14.82;8.88;;;-2.50;99.90;;;;;;5020451;28;20030;-62
2024/01/10 08:50:50;;;;;;;15.40;10.05;;;-2.40;99.90;;;;;;5019667;28;20030;-62
2024/01/10 08:53:16;;;;;;;18.95;9.77;;;-2.30;99.90;;;;;;5021571;28;20026;-62
2024/01/10 08:55:41;;;;;;;17.70;10.38;;;-2.20;99.90;;;;;;5020170;28;20057;-62
2024/01/10 08:58:07;;;;;;;16.52;9.50;;;-2.20;99.90;;;;;;5021235;28;20026;-61
2024/01/10 09:00:33;;;;;;;13.25;8.57;;;-2.10;99.90;;;;;;5018576;28;20398;-61
2024/01/10 09:03:00;;;;;;;12.80;8.65;;;-2.10;99.90;;;;;;5018649;28;20034;-62
2024/01/10 09:05:26;;;;;;;15.35;9.23;;;-2.00;99.90;;;;;;5021650;28;20033;-61
2024/01/10 09:07:53;;;;;;;14.88;8.68;;;-1.90;99.90;;;;;;5022222;28;20030;-61
2024/01/10 09:10:21;;;;;;;27.00;10.95;;;-1.80;99.90;;;;;;5015287;28;20048;-63
2024/01/10 09:12:47;;;;;;;14.13;8.45;;;-1.80;99.90;;;;;;5018589;28;20136;-62
2024/01/10 09:15:14;;;;;;;14.88;9.35;;;-1.70;99.90;;;;;;5016001;28;20033;-62
2024/01/10 09:17:43;;;;;;;18.17;9.38;;;-1.60;99.90;;;;;;5018476;28;20033;-63
2024/01/10 09:20:10;;;;;;;16.00;9.52;;;-1.40;99.90;;;;;;5021741;28;20095;-63
2024/01/10 09:22:37;;;;;;;16.73;8.45;;;-1.00;99.90;;;;;;5021373;28;19920;-61
2024/01/10 09:25:05;;;;;;;15.65;9.48;;;-0.30;99.90;;;;;;5020876;28;20432;-62
2024/01/10 09:27:34;;;;;;;15.57;9.23;;;0.70;99.90;;;;;;5018659;28;20109;-63
2024/01/10 09:30:01;;;;;;;11.90;8.07;;;1.60;99.90;;;;;;5018245;28;20390;-61
2024/01/10 09:32:28;;;;;;;11.95;8.75;;;2.60;93.90;;;;;;5022597;28;20600;-61
2024/01/10 09:34:54;;;;;;;11.70;8.43;;;3.60;89.80;;;;;;5005644;28;20086;-63
2024/01/10 09:37:20;;;;;;;10.55;7.93;;;4.50;83.60;;;;;;5024214;28;20079;-61
2024/01/10 09:39:46;;;;;;;11.73;9.02;;;5.40;77.70;;;;;;5022359;28;20436;-62
2024/01/10 09:42:11;;;;;;;9.27;7.82;;;6.10;70.40;;;;;;5024152;28;20044;-63
2024/01/10 09:44:37;;;;;;;10.45;8.95;;;6.50;67.80;;;;;;5020691;28;20026;-63
2024/01/10 09:47:03;;;;;;;11.98;9.45;;;7.10;66.10;;;;;;5022954;28;20087;-61
2024/01/10 09:49:29;;;;;;;12.43;9.32;;;7.30;63.50;;;;;;5023115;28;20057;-62
2024/01/10 09:52:01;;;;;;;9.50;8.35;;;7.70;62.30;;;;;;5024546;28;20045;-63
2024/01/10 09:54:30;;;;;;;12.23;8.65;;;7.90;59.60;;;;;;5022118;28;20033;-60
2024/01/10 09:56:59;;;;;;;12.82;8.93;;;8.00;58.80;;;;;;5021477;28;20120;-61
2024/01/10 09:59:24;;;;;;;9.90;8.85;;;8.20;59.50;;;;;;5023814;28;20022;-61
2024/01/10 10:01:51;;;;;;;11.15;8.80;;;8.30;57.90;;;;;;5021357;28;20398;-62
2024/01/10 10:04:19;;;;;;;9.40;8.32;;;8.30;58.50;;;;;;5018745;28;20475;-62
2024/01/10 10:06:45;;;;;;;12.98;8.57;;;8.30;56.80;;;;;;5022120;28;20048;-63
2024/01/10 10:09:12;;;;;;;10.90;9.02;;;8.20;57.00;;;;;;4987832;28;20021;-61
2024/01/10 10:11:38;;;;;;;10.68;8.35;;;8.20;58.00;;;;;;5020120;28;20084;-63
2024/01/10 10:14:17;;;;;;;10.55;8.32;;;8.30;57.90;;;;;;5016223;28;20029;-62
2024/01/10 10:16:43;;;;;;;10.10;8.23;;;8.30;57.20;;;;;;5017729;28;20394;-62
2024/01/10 10:19:11;;;;;;;9.95;8.85;;;8.30;56.50;;;;;;5020355;28;20018;-61
2024/01/10 10:21:37;;;;;;;9.95;8.38;;;8.20;56.60;;;;;;5020762;28;20037;-63
2024/01/10 10:24:08;;;;;;;11.52;8.80;;;8.20;57.70;;;;;;5018445;28;20478;-61
2024/01/10 10:26:34;;;;;;;11.63;9.18;;;8.20;56.20;;;;;;5017268;28;20528;-61
2024/01/10 10:29:00;;;;;;;12.75;8.98;;;8.10;56.80;;;;;;5020443;28;20030;-61
2024/01/10 10:31:26;;;;;;;11.40;9.00;;;7.90;56.80;;;;;;5022591;28;20786;-61
2024/01/10 10:33:52;;;;;;;10.60;9.35;;;7.80;56.60;;;;;;5017287;28;20036;-62
2024/01/10 10:36:20;;;;;;;12.05;9.63;;;7.70;57.70;;;;;;5018353;28;20030;-62
2024/01/10 10:38:49;;;;;;;11.05;8.20;;;7.70;57.80;;;;;;5022213;28;20038;-63
2024/01/10 10:41:15;;;;;;;11.73;8.48;;;7.70;56.50;;;;;;5018440;28;20514;-64
2024/01/10 10:43:41;;;;;;;13.38;9.63;;;7.50;56.90;;;;;;5016978;28;20040;-62
2024/01/10 10:46:16;;;;;;;17.10;9.48;;;7.60;57.00;;;;;;5020456;28;20500;-62
2024/01/10 10:48:42;;;;;;;13.65;9.13;;;7.50;56.80;;;;;;5021969;28;20030;-63
2024/01/10 10:51:26;;;;;;;12.63;9.52;;;7.40;56.90;;;;;;5017864;28;20033;-63
2024/01/10 10:53:53;;;;;;;14.05;9.10;;;7.40;57.10;;;;;;5021489;28;20028;-62
2024/01/10 10:56:19;;;;;;;12.68;9.98;;;7.00;57.60;;;;;;5020363;28;20127;-64
2024/01/10 10:58:46;;;;;;;12.95;8.88;;;6.60;58.20;;;;;;5019832;28;20556;-63
2024/01/10 11:01:14;;;;;;;11.10;8.90;;;6.50;59.40;;;;;;5021822;28;20026;-64
2024/01/10 11:03:41;;;;;;;10.82;8.80;;;6.40;60.70;;;;;;5017855;28;20030;-63
2024/01/10 11:06:07;;;;;;;15.40;10.10;;;6.40;59.80;;;;;;5017718;28;20121;-63
2024/01/10 11:08:56;;;;;;;13.23;9.25;;;6.30;59.10;;;;;;5020174;28;20575;-63
2024/01/10 11:11:22;;;;;;;14.00;10.20;;;6.10;60.20;;;;;;5018718;28;20112;-64
2024/01/10 11:13:56;;;;;;;14.07;8.95;;;6.10;61.50;;;;;;5019494;28;20157;-63
2024/01/10 11:16:41;;;;;;;12.55;8.48;;;5.90;60.50;;;;;;5021835;28;20018;-63
2024/01/10 11:19:13;;;;;;;12.38;9.15;;;5.70;60.90;;;;;;5019849;28;20064;-64
2024/01/10 11:21:59;;;;;;;15.00;9.23;;;5.50;61.70;;;;;;5018660;28;20112;-62
2024/01/10 11:24:26;;;;;;;13.15;9.15;;;5.10;62.50;;;;;;5022171;28;20030;-63
2024/01/10 11:27:13;;;;;;;12.88;8.77;;;4.80;64.20;;;;;;5018136;28;20448;-63
2024/01/10 11:29:39;;;;;;;13.02;9.98;;;4.70;65.30;;;;;;5019262;28;20083;-62
2024/01/10 11:32:09;;;;;;;12.93;9.55;;;4.60;65.20;;;;;;5019459;28;20041;-63
2024/01/10 11:34:35;;;;;;;11.88;8.95;;;4.40;65.40;;;;;;5017676;28;20021;-64
2024/01/10 11:37:11;;;;;;;12.80;8.85;;;4.30;66.00;;;;;;5022155;28;20084;-62
2024/01/10 11:39:37;;;;;;;12.95;9.35;;;4.30;66.80;;;;;;5019583;28;20037;-65
2024/01/10 11:42:03;;;;;;;15.05;9.65;;;4.20;65.90;;;;;;5022843;28;20401;-63
2024/01/10 11:44:29;;;;;;;13.88;9.13;;;4.10;66.50;;;;;;5018699;28;20049;-63
2024/01/10 11:46:57;;;;;;;13.45;9.23;;;4.00;67.80;;;;;;5018547;28;20052;-63
2024/01/10 11:49:24;;;;;;;11.68;9.05;;;4.00;67.50;;;;;;5020631;28;20033;-63
2024/01/10 11:51:52;;;;;;;18.25;10.13;;;4.00;68.20;;;;;;5018948;28;20040;-61
2024/01/10 11:54:43;;;;;;;17.48;10.13;;;3.90;67.90;;;;;;5025013;28;20569;-62
2024/01/10 11:57:17;;;;;;;13.52;9.00;;;3.90;69.10;;;;;;5025022;28;20045;-62
2024/01/10 11:59:47;;;;;;;11.35;8.05;;;4.00;69.20;;;;;;5022798;28;20034;-64
2024/01/10 12:02:17;;;;;;;12.15;8.38;;;4.00;67.20;;;;;;5022220;28;20030;-62
2024/01/10 12:04:43;;;;;;;15.00;7.90;;;4.00;68.50;;;;;;5024061;28;20125;-63
2024/01/10 12:07:09;;;;;;;13.95;8.23;;;4.10;68.90;;;;;;5024513;28;20080;-62
2024/01/10 12:09:37;;;;;;;13.13;8.45;;;4.20;69.10;;;;;;5021836;28;20042;-62
2024/01/10 12:12:04;;;;;;;14.05;8.70;;;4.40;69.30;;;;;;5025950;28;20720;-62
2024/01/10 12:14:30;;;;;;;12.65;8.60;;;4.60;66.90;;;;;;5023154;28;20095;-63
2024/01/10 12:16:57;;;;;;;15.05;9.23;;;4.80;67.40;;;;;;5022794;28;20030;-64
2024/01/10 12:19:22;;;;;;;13.13;9.52;;;5.00;66.50;;;;;;5021351;28;20029;-63
2024/01/10 12:21:52;;;;;;;10.88;8.25;;;5.10;66.50;;;;;;5023432;28;20394;-63
2024/01/10 12:24:18;;;;;;;11.55;9.15;;;5.30;67.00;;;;;;5022311;28;20124;-61
2024/01/10 12:26:49;;;;;;;12.73;8.52;;;5.40;65.20;;;;;;5024001;28;20734;-65
2024/01/10 12:29:19;;;;;;;;;;;5.40;63.20;;;;;;5022959;28;20489;-63
2024/01/10 12:31:45;;;;;;;11.17;9.07;;;5.30;63.50;;;;;;5020432;28;19931;-63
2024/01/10 12:34:11;;;;;;;11.00;8.50;;;5.20;64.30;;;;;;5020929;28;20756;-63
2024/01/10 12:36:37;;;;;;;14.82;9.60;;;5.30;64.40;;;;;;5020223;28;20030;-64